sensor_id;sensor_type;location;lat;lon;timestamp;pressure;altitude;pressure_sealevel;temperature;humidity
55576;BME280;41437;45.478;9.116;2023-04-10T00:01:03;100389.56;;;10.66;nan
55576;BME280;41437;45.478;9.116;2023-04-10T00:04:05;100393.19;;;10.67;nan
55576;BME280;41437;45.478;9.116;2023-04-10T00:07:06;100394.66;;;10.57;nan
55576;BME280;41437;45.478;9.116;2023-04-10T00:10:12;100377.81;;;10.54;nan
55576;BME280;41437;45.478;9.116;2023-04-10T00:13:13;100384.53;;;10.46;nan
55576;BME280;41437;45.478;9.116;2023-04-10T00:16:17;100382.63;;;10.47;nan
55576;BME280;41437;45.478;9.116;2023-04-10T00:19:19;100380.00;;;10.40;nan
55576;BME280;41437;45.478;9.116;2023-04-10T00:22:22;100372.72;;;10.34;nan
55576;BME280;41437;45.478;9.116;2023-04-10T00:25:24;100377.97;;;10.36;nan
55576;BME280;41437;45.478;9.116;2023-04-10T00:28:25;100382.91;;;10.34;nan
55576;BME280;41437;45.478;9.116;2023-04-10T00:31:31;100385.22;;;10.25;nan
55576;BME280;41437;45.478;9.116;2023-04-10T00:34:32;100377.53;;;10.27;nan
55576;BME280;41437;45.478;9.116;2023-04-10T00:37:36;100376.84;;;10.20;nan
55576;BME280;41437;45.478;9.116;2023-04-10T00:40:38;100380.56;;;10.14;nan
55576;BME280;41437;45.478;9.116;2023-04-10T00:43:41;100395.16;;;10.14;nan
55576;BME280;41437;45.478;9.116;2023-04-10T00:46:46;100387.63;;;10.10;nan
55576;BME280;41437;45.478;9.116;2023-04-10T00:49:48;100391.72;;;10.07;nan
55576;BME280;41437;45.478;9.116;2023-04-10T00:52:50;100398.06;;;10.07;nan
55576;BME280;41437;45.478;9.116;2023-04-10T00:55:52;100396.25;;;10.13;nan
55576;BME280;41437;45.478;9.116;2023-04-10T00:58:54;100396.50;;;10.12;nan
55576;BME280;41437;45.478;9.116;2023-04-10T01:01:57;100398.16;;;10.13;nan
55576;BME280;41437;45.478;9.116;2023-04-10T01:04:58;100398.63;;;10.21;nan
55576;BME280;41437;45.478;9.116;2023-04-10T01:08:12;100404.72;;;10.23;nan
55576;BME280;41437;45.478;9.116;2023-04-10T01:11:25;100406.25;;;10.31;nan
55576;BME280;41437;45.478;9.116;2023-04-10T01:14:32;100408.44;;;10.29;nan
55576;BME280;41437;45.478;9.116;2023-04-10T01:17:42;100401.00;;;10.29;nan
55576;BME280;41437;45.478;9.116;2023-04-10T01:20:46;100398.25;;;10.29;nan
55576;BME280;41437;45.478;9.116;2023-04-10T01:24:06;100414.53;;;10.31;nan
55576;BME280;41437;45.478;9.116;2023-04-10T01:27:29;100411.78;;;10.31;nan
55576;BME280;41437;45.478;9.116;2023-04-10T01:30:40;100408.06;;;10.37;nan
55576;BME280;41437;45.478;9.116;2023-04-10T01:33:46;100411.38;;;10.39;nan
55576;BME280;41437;45.478;9.116;2023-04-10T01:36:54;100411.28;;;10.34;nan
55576;BME280;41437;45.478;9.116;2023-04-10T01:43:00;100404.34;;;10.31;nan
55576;BME280;41437;45.478;9.116;2023-04-10T01:46:07;100405.22;;;10.32;nan
55576;BME280;41437;45.478;9.116;2023-04-10T01:49:09;100408.53;;;10.34;nan
55576;BME280;41437;45.478;9.116;2023-04-10T01:52:13;100409.53;;;10.28;nan
55576;BME280;41437;45.478;9.116;2023-04-10T01:55:15;100415.03;;;10.28;nan
55576;BME280;41437;45.478;9.116;2023-04-10T01:58:17;100417.53;;;10.18;nan
55576;BME280;41437;45.478;9.116;2023-04-10T02:01:21;100414.56;;;10.19;nan
55576;BME280;41437;45.478;9.116;2023-04-10T02:04:22;100414.03;;;10.22;nan
55576;BME280;41437;45.478;9.116;2023-04-10T02:07:29;100425.31;;;10.21;nan
55576;BME280;41437;45.478;9.116;2023-04-10T02:10:40;100423.03;;;10.18;nan
55576;BME280;41437;45.478;9.116;2023-04-10T02:16:50;100413.84;;;10.12;nan
55576;BME280;41437;45.478;9.116;2023-04-10T02:19:54;100413.59;;;10.14;nan
55576;BME280;41437;45.478;9.116;2023-04-10T02:22:58;100406.88;;;10.21;nan
55576;BME280;41437;45.478;9.116;2023-04-10T02:26:06;100402.84;;;10.12;nan
55576;BME280;41437;45.478;9.116;2023-04-10T02:29:08;100397.31;;;10.12;nan
55576;BME280;41437;45.478;9.116;2023-04-10T02:32:11;100394.47;;;10.07;nan
55576;BME280;41437;45.478;9.116;2023-04-10T02:35:13;100397.81;;;10.09;nan
55576;BME280;41437;45.478;9.116;2023-04-10T02:38:14;100397.13;;;10.02;nan
55576;BME280;41437;45.478;9.116;2023-04-10T02:41:16;100400.09;;;10.00;nan
55576;BME280;41437;45.478;9.116;2023-04-10T02:44:17;100403.38;;;9.97;nan
55576;BME280;41437;45.478;9.116;2023-04-10T02:47:21;100402.91;;;9.89;nan
55576;BME280;41437;45.478;9.116;2023-04-10T02:50:23;100400.75;;;9.79;nan
55576;BME280;41437;45.478;9.116;2023-04-10T02:53:28;100407.94;;;9.80;nan
55576;BME280;41437;45.478;9.116;2023-04-10T02:56:32;100416.69;;;9.77;nan
55576;BME280;41437;45.478;9.116;2023-04-10T02:59:34;100417.50;;;9.77;nan
55576;BME280;41437;45.478;9.116;2023-04-10T03:02:37;100413.47;;;9.80;nan
55576;BME280;41437;45.478;9.116;2023-04-10T03:05:38;100418.25;;;9.73;nan
55576;BME280;41437;45.478;9.116;2023-04-10T03:08:40;100406.41;;;9.61;nan
55576;BME280;41437;45.478;9.116;2023-04-10T03:11:41;100409.41;;;9.59;nan
55576;BME280;41437;45.478;9.116;2023-04-10T03:14:43;100421.47;;;9.70;nan
55576;BME280;41437;45.478;9.116;2023-04-10T03:20:48;100418.13;;;9.56;nan
55576;BME280;41437;45.478;9.116;2023-04-10T03:23:51;100412.53;;;9.63;nan
55576;BME280;41437;45.478;9.116;2023-04-10T03:26:52;100414.56;;;9.55;nan
55576;BME280;41437;45.478;9.116;2023-04-10T03:29:56;100411.53;;;9.57;nan
55576;BME280;41437;45.478;9.116;2023-04-10T03:32:59;100416.94;;;9.52;nan
55576;BME280;41437;45.478;9.116;2023-04-10T03:36:04;100420.28;;;9.42;nan
55576;BME280;41437;45.478;9.116;2023-04-10T03:42:10;100418.50;;;9.36;nan
55576;BME280;41437;45.478;9.116;2023-04-10T03:45:13;100423.03;;;9.30;nan
55576;BME280;41437;45.478;9.116;2023-04-10T03:48:16;100413.84;;;9.25;nan
55576;BME280;41437;45.478;9.116;2023-04-10T03:51:18;100411.09;;;9.25;nan
55576;BME280;41437;45.478;9.116;2023-04-10T03:57:24;100427.59;;;9.25;nan
55576;BME280;41437;45.478;9.116;2023-04-10T04:00:25;100421.00;;;9.26;nan
55576;BME280;41437;45.478;9.116;2023-04-10T04:03:28;100418.94;;;9.10;nan
55576;BME280;41437;45.478;9.116;2023-04-10T04:06:30;100429.81;;;9.04;nan
55576;BME280;41437;45.478;9.116;2023-04-10T04:09:31;100427.56;;;9.01;nan
55576;BME280;41437;45.478;9.116;2023-04-10T04:12:33;100437.09;;;8.99;nan
55576;BME280;41437;45.478;9.116;2023-04-10T04:15:34;100438.91;;;8.93;nan
55576;BME280;41437;45.478;9.116;2023-04-10T04:18:39;100447.59;;;8.90;nan
55576;BME280;41437;45.478;9.116;2023-04-10T04:21:41;100449.88;;;8.93;nan
55576;BME280;41437;45.478;9.116;2023-04-10T04:24:42;100454.75;;;8.91;nan
55576;BME280;41437;45.478;9.116;2023-04-10T04:27:44;100459.66;;;8.89;nan
55576;BME280;41437;45.478;9.116;2023-04-10T04:30:46;100449.00;;;8.81;nan
55576;BME280;41437;45.478;9.116;2023-04-10T04:33:49;100456.41;;;8.80;nan
55576;BME280;41437;45.478;9.116;2023-04-10T04:36:51;100452.09;;;8.73;nan
55576;BME280;41437;45.478;9.116;2023-04-10T04:39:52;100449.34;;;8.73;nan
55576;BME280;41437;45.478;9.116;2023-04-10T04:42:54;100446.47;;;8.68;nan
55576;BME280;41437;45.478;9.116;2023-04-10T04:48:58;100443.00;;;8.72;nan
55576;BME280;41437;45.478;9.116;2023-04-10T04:52:00;100442.97;;;8.61;nan
55576;BME280;41437;45.478;9.116;2023-04-10T04:55:01;100445.44;;;8.80;nan
55576;BME280;41437;45.478;9.116;2023-04-10T04:58:03;100437.75;;;8.71;nan
55576;BME280;41437;45.478;9.116;2023-04-10T05:01:06;100443.72;;;8.68;nan
55576;BME280;41437;45.478;9.116;2023-04-10T05:04:09;100454.25;;;8.71;nan
55576;BME280;41437;45.478;9.116;2023-04-10T05:07:10;100458.53;;;8.78;nan
55576;BME280;41437;45.478;9.116;2023-04-10T05:10:12;100453.66;;;8.80;nan
55576;BME280;41437;45.478;9.116;2023-04-10T05:13:13;100451.75;;;8.81;nan
55576;BME280;41437;45.478;9.116;2023-04-10T05:16:17;100449.25;;;8.91;nan
55576;BME280;41437;45.478;9.116;2023-04-10T05:19:19;100453.09;;;8.90;nan
55576;BME280;41437;45.478;9.116;2023-04-10T05:22:21;100460.53;;;9.01;nan
55576;BME280;41437;45.478;9.116;2023-04-10T05:28:24;100463.09;;;9.15;nan
55576;BME280;41437;45.478;9.116;2023-04-10T05:31:25;100460.91;;;9.17;nan
55576;BME280;41437;45.478;9.116;2023-04-10T05:34:28;100469.88;;;9.12;nan
55576;BME280;41437;45.478;9.116;2023-04-10T05:37:30;100476.47;;;9.23;nan
55576;BME280;41437;45.478;9.116;2023-04-10T05:43:33;100489.19;;;9.47;nan
55576;BME280;41437;45.478;9.116;2023-04-10T05:46:35;100480.00;;;9.53;nan
55576;BME280;41437;45.478;9.116;2023-04-10T05:49:38;100489.31;;;9.76;nan
55576;BME280;41437;45.478;9.116;2023-04-10T05:52:43;100487.72;;;10.03;nan
55576;BME280;41437;45.478;9.116;2023-04-10T05:55:48;100502.69;;;10.19;nan
55576;BME280;41437;45.478;9.116;2023-04-10T05:58:51;100505.06;;;10.16;nan
55576;BME280;41437;45.478;9.116;2023-04-10T06:01:52;100510.59;;;10.27;nan
55576;BME280;41437;45.478;9.116;2023-04-10T06:04:56;100511.16;;;10.41;nan
55576;BME280;41437;45.478;9.116;2023-04-10T06:07:57;100521.41;;;10.57;nan
55576;BME280;41437;45.478;9.116;2023-04-10T06:10:59;100529.50;;;10.76;nan
55576;BME280;41437;45.478;9.116;2023-04-10T06:14:01;100525.25;;;11.14;nan
55576;BME280;41437;45.478;9.116;2023-04-10T06:17:02;100524.19;;;11.82;nan
55576;BME280;41437;45.478;9.116;2023-04-10T06:20:07;100531.91;;;11.97;nan
55576;BME280;41437;45.478;9.116;2023-04-10T06:23:09;100532.94;;;12.29;nan
55576;BME280;41437;45.478;9.116;2023-04-10T06:26:12;100536.47;;;12.91;nan
55576;BME280;41437;45.478;9.116;2023-04-10T06:29:14;100535.25;;;13.95;nan
55576;BME280;41437;45.478;9.116;2023-04-10T06:32:16;100543.53;;;14.90;nan
55576;BME280;41437;45.478;9.116;2023-04-10T06:35:19;100555.59;;;15.41;nan
55576;BME280;41437;45.478;9.116;2023-04-10T06:38:21;100556.69;;;15.30;nan
55576;BME280;41437;45.478;9.116;2023-04-10T06:41:23;100557.53;;;15.61;nan
55576;BME280;41437;45.478;9.116;2023-04-10T06:44:24;100562.59;;;15.90;nan
55576;BME280;41437;45.478;9.116;2023-04-10T06:47:26;100565.25;;;16.51;nan
55576;BME280;41437;45.478;9.116;2023-04-10T06:50:29;100566.16;;;15.54;nan
55576;BME280;41437;45.478;9.116;2023-04-10T06:53:30;100565.81;;;15.15;nan
55576;BME280;41437;45.478;9.116;2023-04-10T06:56:32;100566.66;;;15.21;nan
55576;BME280;41437;45.478;9.116;2023-04-10T06:59:34;100564.47;;;15.38;nan
55576;BME280;41437;45.478;9.116;2023-04-10T07:02:35;100560.53;;;15.19;nan
55576;BME280;41437;45.478;9.116;2023-04-10T07:05:41;100560.91;;;14.70;nan
55576;BME280;41437;45.478;9.116;2023-04-10T07:08:43;100564.03;;;14.89;nan
55576;BME280;41437;45.478;9.116;2023-04-10T07:11:44;100564.13;;;14.46;nan
55576;BME280;41437;45.478;9.116;2023-04-10T07:14:48;100553.56;;;14.01;nan
55576;BME280;41437;45.478;9.116;2023-04-10T07:17:50;100564.16;;;13.72;nan
55576;BME280;41437;45.478;9.116;2023-04-10T07:20:53;100567.88;;;13.55;nan
55576;BME280;41437;45.478;9.116;2023-04-10T07:23:54;100556.75;;;13.23;nan
55576;BME280;41437;45.478;9.116;2023-04-10T07:26:56;100557.41;;;13.08;nan
55576;BME280;41437;45.478;9.116;2023-04-10T07:29:59;100560.72;;;12.83;nan
55576;BME280;41437;45.478;9.116;2023-04-10T07:33:01;100554.66;;;12.87;nan
55576;BME280;41437;45.478;9.116;2023-04-10T07:36:07;100556.19;;;12.99;nan
55576;BME280;41437;45.478;9.116;2023-04-10T07:39:09;100563.44;;;13.05;nan
55576;BME280;41437;45.478;9.116;2023-04-10T07:42:11;100563.41;;;13.22;nan
55576;BME280;41437;45.478;9.116;2023-04-10T07:45:13;100569.69;;;13.18;nan
55576;BME280;41437;45.478;9.116;2023-04-10T07:48:17;100568.78;;;12.63;nan
55576;BME280;41437;45.478;9.116;2023-04-10T07:51:20;100566.97;;;12.13;nan
55576;BME280;41437;45.478;9.116;2023-04-10T07:57:23;100567.53;;;12.98;nan
55576;BME280;41437;45.478;9.116;2023-04-10T08:00:24;100570.66;;;13.28;nan
55576;BME280;41437;45.478;9.116;2023-04-10T08:06:29;100574.44;;;13.49;nan
55576;BME280;41437;45.478;9.116;2023-04-10T08:09:31;100566.84;;;13.67;nan
55576;BME280;41437;45.478;9.116;2023-04-10T08:12:33;100565.22;;;13.71;nan
55576;BME280;41437;45.478;9.116;2023-04-10T08:18:38;100560.72;;;13.60;nan
55576;BME280;41437;45.478;9.116;2023-04-10T08:21:41;100567.00;;;13.82;nan
55576;BME280;41437;45.478;9.116;2023-04-10T08:24:46;100573.72;;;13.91;nan
55576;BME280;41437;45.478;9.116;2023-04-10T08:33:50;100579.44;;;13.79;nan
55576;BME280;41437;45.478;9.116;2023-04-10T08:36:56;100589.38;;;14.07;nan
55576;BME280;41437;45.478;9.116;2023-04-10T08:43:26;100584.56;;;14.40;nan
55576;BME280;41437;45.478;9.116;2023-04-10T08:46:28;100587.78;;;14.59;nan
55576;BME280;41437;45.478;9.116;2023-04-10T08:49:39;100584.84;;;14.86;nan
55576;BME280;41437;45.478;9.116;2023-04-10T08:52:45;100584.28;;;14.84;nan
55576;BME280;41437;45.478;9.116;2023-04-10T08:58:51;100592.69;;;15.09;nan
55576;BME280;41437;45.478;9.116;2023-04-10T09:01:53;100582.25;;;14.59;nan
55576;BME280;41437;45.478;9.116;2023-04-10T09:04:56;100582.91;;;14.39;nan
55576;BME280;41437;45.478;9.116;2023-04-10T09:08:01;100586.09;;;14.58;nan
55576;BME280;41437;45.478;9.116;2023-04-10T09:11:04;100582.28;;;14.69;nan
55576;BME280;41437;45.478;9.116;2023-04-10T09:17:20;100583.31;;;15.21;nan
55576;BME280;41437;45.478;9.116;2023-04-10T09:20:23;100596.13;;;15.42;nan
55576;BME280;41437;45.478;9.116;2023-04-10T09:23:26;100592.03;;;15.70;nan
55576;BME280;41437;45.478;9.116;2023-04-10T09:26:29;100589.81;;;15.67;nan
55576;BME280;41437;45.478;9.116;2023-04-10T09:29:41;100585.56;;;15.44;nan
55576;BME280;41437;45.478;9.116;2023-04-10T09:32:44;100576.69;;;15.37;nan
55576;BME280;41437;45.478;9.116;2023-04-10T09:38:51;100573.94;;;16.14;nan
55576;BME280;41437;45.478;9.116;2023-04-10T09:41:58;100563.84;;;16.53;nan
55576;BME280;41437;45.478;9.116;2023-04-10T09:45:00;100564.19;;;16.42;nan
55576;BME280;41437;45.478;9.116;2023-04-10T09:48:03;100568.94;;;16.21;nan
55576;BME280;41437;45.478;9.116;2023-04-10T09:51:05;100576.31;;;16.66;nan
55576;BME280;41437;45.478;9.116;2023-04-10T09:54:08;100573.81;;;16.70;nan
55576;BME280;41437;45.478;9.116;2023-04-10T09:57:11;100570.97;;;16.95;nan
55576;BME280;41437;45.478;9.116;2023-04-10T10:03:17;100568.81;;;17.31;nan
55576;BME280;41437;45.478;9.116;2023-04-10T10:06:20;100574.53;;;17.01;nan
55576;BME280;41437;45.478;9.116;2023-04-10T10:12:33;100563.94;;;17.08;nan
55576;BME280;41437;45.478;9.116;2023-04-10T10:15:38;100554.09;;;17.65;nan
55576;BME280;41437;45.478;9.116;2023-04-10T10:18:46;100554.97;;;17.61;nan
55576;BME280;41437;45.478;9.116;2023-04-10T10:21:52;100548.44;;;17.75;nan
55576;BME280;41437;45.478;9.116;2023-04-10T10:24:59;100540.91;;;16.92;nan
55576;BME280;41437;45.478;9.116;2023-04-10T10:28:03;100540.50;;;17.14;nan
55576;BME280;41437;45.478;9.116;2023-04-10T10:34:07;100526.97;;;17.42;nan
55576;BME280;41437;45.478;9.116;2023-04-10T10:49:52;100531.72;;;18.57;nan
55576;BME280;41437;45.478;9.116;2023-04-10T10:52:55;100527.94;;;18.24;nan
55576;BME280;41437;45.478;9.116;2023-04-10T10:56:34;100528.75;;;18.25;nan
55576;BME280;41437;45.478;9.116;2023-04-10T10:59:54;100524.19;;;18.58;nan
55576;BME280;41437;45.478;9.116;2023-04-10T11:03:27;100515.81;;;18.58;nan
55576;BME280;41437;45.478;9.116;2023-04-10T11:06:49;100513.91;;;18.53;nan
55576;BME280;41437;45.478;9.116;2023-04-10T11:09:54;100503.28;;;17.78;nan
55576;BME280;41437;45.478;9.116;2023-04-10T11:13:16;100493.09;;;17.58;nan
55576;BME280;41437;45.478;9.116;2023-04-10T11:16:19;100486.84;;;17.03;nan
55576;BME280;41437;45.478;9.116;2023-04-10T11:19:21;100494.81;;;17.15;nan
55576;BME280;41437;45.478;9.116;2023-04-10T11:22:25;100495.63;;;18.18;nan
55576;BME280;41437;45.478;9.116;2023-04-10T11:25:49;100497.25;;;18.67;nan
55576;BME280;41437;45.478;9.116;2023-04-10T12:11:49;100431.06;;;18.30;nan
55576;BME280;41437;45.478;9.116;2023-04-10T13:34:26;100367.72;;;19.25;nan
55576;BME280;41437;45.478;9.116;2023-04-10T15:44:55;100269.00;;;18.83;nan
55576;BME280;41437;45.478;9.116;2023-04-10T16:00:12;100265.59;;;18.86;nan
55576;BME280;41437;45.478;9.116;2023-04-10T16:03:14;100266.22;;;18.83;nan
55576;BME280;41437;45.478;9.116;2023-04-10T16:06:17;100257.22;;;18.67;nan
55576;BME280;41437;45.478;9.116;2023-04-10T16:09:18;100262.56;;;18.31;nan
55576;BME280;41437;45.478;9.116;2023-04-10T16:12:20;100267.06;;;18.46;nan
55576;BME280;41437;45.478;9.116;2023-04-10T16:18:24;100259.22;;;18.48;nan
55576;BME280;41437;45.478;9.116;2023-04-10T16:21:27;100255.25;;;18.35;nan
55576;BME280;41437;45.478;9.116;2023-04-10T16:24:28;100250.06;;;18.28;nan
55576;BME280;41437;45.478;9.116;2023-04-10T16:27:31;100250.03;;;17.91;nan
55576;BME280;41437;45.478;9.116;2023-04-10T16:30:33;100250.91;;;17.62;nan
55576;BME280;41437;45.478;9.116;2023-04-10T16:33:36;100243.38;;;17.63;nan
55576;BME280;41437;45.478;9.116;2023-04-10T16:36:39;100243.53;;;17.52;nan
55576;BME280;41437;45.478;9.116;2023-04-10T16:39:43;100238.09;;;17.42;nan
55576;BME280;41437;45.478;9.116;2023-04-10T16:42:45;100235.09;;;17.09;nan
55576;BME280;41437;45.478;9.116;2023-04-10T16:48:57;100242.03;;;16.83;nan
55576;BME280;41437;45.478;9.116;2023-04-10T16:52:00;100237.91;;;16.80;nan
55576;BME280;41437;45.478;9.116;2023-04-10T16:55:06;100245.38;;;16.85;nan
55576;BME280;41437;45.478;9.116;2023-04-10T16:58:10;100243.69;;;16.84;nan
55576;BME280;41437;45.478;9.116;2023-04-10T17:01:13;100245.47;;;16.75;nan
55576;BME280;41437;45.478;9.116;2023-04-10T17:04:15;100244.06;;;16.77;nan
55576;BME280;41437;45.478;9.116;2023-04-10T17:07:20;100233.31;;;16.61;nan
55576;BME280;41437;45.478;9.116;2023-04-10T17:10:22;100226.16;;;16.49;nan
55576;BME280;41437;45.478;9.116;2023-04-10T17:13:24;100226.88;;;16.31;nan
55576;BME280;41437;45.478;9.116;2023-04-10T17:16:27;100236.38;;;16.25;nan
55576;BME280;41437;45.478;9.116;2023-04-10T17:19:29;100238.97;;;16.11;nan
55576;BME280;41437;45.478;9.116;2023-04-10T17:22:32;100236.22;;;16.11;nan
55576;BME280;41437;45.478;9.116;2023-04-10T17:25:37;100237.31;;;16.10;nan
55576;BME280;41437;45.478;9.116;2023-04-10T17:28:39;100242.06;;;16.04;nan
55576;BME280;41437;45.478;9.116;2023-04-10T17:31:46;100232.06;;;16.03;nan
55576;BME280;41437;45.478;9.116;2023-04-10T17:34:48;100222.94;;;15.98;nan
55576;BME280;41437;45.478;9.116;2023-04-10T17:37:51;100224.34;;;15.95;nan
55576;BME280;41437;45.478;9.116;2023-04-10T17:40:53;100238.84;;;15.87;nan
55576;BME280;41437;45.478;9.116;2023-04-10T17:43:57;100235.78;;;15.83;nan
55576;BME280;41437;45.478;9.116;2023-04-10T17:46:59;100224.19;;;15.71;nan
55576;BME280;41437;45.478;9.116;2023-04-10T17:50:01;100224.47;;;15.70;nan
55576;BME280;41437;45.478;9.116;2023-04-10T17:53:04;100230.88;;;15.60;nan
55576;BME280;41437;45.478;9.116;2023-04-10T17:56:06;100227.31;;;15.49;nan
55576;BME280;41437;45.478;9.116;2023-04-10T17:59:07;100234.53;;;15.45;nan
55576;BME280;41437;45.478;9.116;2023-04-10T18:02:11;100234.31;;;15.31;nan
55576;BME280;41437;45.478;9.116;2023-04-10T18:05:13;100241.31;;;15.24;nan
55576;BME280;41437;45.478;9.116;2023-04-10T18:08:22;100236.56;;;15.19;nan
55576;BME280;41437;45.478;9.116;2023-04-10T18:11:23;100246.34;;;15.12;nan
55576;BME280;41437;45.478;9.116;2023-04-10T18:14:25;100246.63;;;15.00;nan
55576;BME280;41437;45.478;9.116;2023-04-10T18:17:26;100248.56;;;14.99;nan
55576;BME280;41437;45.478;9.116;2023-04-10T18:20:31;100251.91;;;14.96;nan
55576;BME280;41437;45.478;9.116;2023-04-10T18:23:34;100240.53;;;14.93;nan
55576;BME280;41437;45.478;9.116;2023-04-10T18:26:35;100240.53;;;14.88;nan
55576;BME280;41437;45.478;9.116;2023-04-10T18:29:37;100246.94;;;14.83;nan
55576;BME280;41437;45.478;9.116;2023-04-10T18:32:38;100249.16;;;14.76;nan
55576;BME280;41437;45.478;9.116;2023-04-10T18:35:42;100259.69;;;14.69;nan
55576;BME280;41437;45.478;9.116;2023-04-10T18:38:46;100253.88;;;14.65;nan
55576;BME280;41437;45.478;9.116;2023-04-10T18:41:47;100257.47;;;14.61;nan
55576;BME280;41437;45.478;9.116;2023-04-10T18:44:49;100256.94;;;14.64;nan
55576;BME280;41437;45.478;9.116;2023-04-10T18:47:51;100272.72;;;14.53;nan
55576;BME280;41437;45.478;9.116;2023-04-10T18:50:52;100269.09;;;14.47;nan
55576;BME280;41437;45.478;9.116;2023-04-10T18:53:55;100279.63;;;14.40;nan
55576;BME280;41437;45.478;9.116;2023-04-10T18:56:59;100273.25;;;14.34;nan
55576;BME280;41437;45.478;9.116;2023-04-10T19:00:00;100267.41;;;14.26;nan
55576;BME280;41437;45.478;9.116;2023-04-10T19:03:03;100266.56;;;14.15;nan
55576;BME280;41437;45.478;9.116;2023-04-10T19:06:06;100270.41;;;14.04;nan
55576;BME280;41437;45.478;9.116;2023-04-10T19:09:10;100274.03;;;14.09;nan
55576;BME280;41437;45.478;9.116;2023-04-10T19:12:11;100266.81;;;14.03;nan
55576;BME280;41437;45.478;9.116;2023-04-10T19:15:13;100256.28;;;14.00;nan
55576;BME280;41437;45.478;9.116;2023-04-10T19:18:15;100245.72;;;13.97;nan
55576;BME280;41437;45.478;9.116;2023-04-10T19:21:17;100248.22;;;13.94;nan
55576;BME280;41437;45.478;9.116;2023-04-10T19:24:20;100248.50;;;13.97;nan
55576;BME280;41437;45.478;9.116;2023-04-10T19:27:21;100245.19;;;13.95;nan
55576;BME280;41437;45.478;9.116;2023-04-10T19:30:23;100257.06;;;13.86;nan
55576;BME280;41437;45.478;9.116;2023-04-10T19:33:25;100264.50;;;13.75;nan
55576;BME280;41437;45.478;9.116;2023-04-10T19:36:26;100256.16;;;13.65;nan
55576;BME280;41437;45.478;9.116;2023-04-10T19:39:29;100253.91;;;13.56;nan
55576;BME280;41437;45.478;9.116;2023-04-10T19:42:33;100243.94;;;13.50;nan
55576;BME280;41437;45.478;9.116;2023-04-10T19:45:34;100239.47;;;13.49;nan
55576;BME280;41437;45.478;9.116;2023-04-10T19:48:54;100241.94;;;13.41;nan
55576;BME280;41437;45.478;9.116;2023-04-10T19:51:55;100244.97;;;13.39;nan
55576;BME280;41437;45.478;9.116;2023-04-10T19:54:58;100238.31;;;13.35;nan
55576;BME280;41437;45.478;9.116;2023-04-10T19:58:00;100237.47;;;13.29;nan
55576;BME280;41437;45.478;9.116;2023-04-10T20:01:01;100241.53;;;13.22;nan
55576;BME280;41437;45.478;9.116;2023-04-10T20:04:05;100240.09;;;13.14;nan
55576;BME280;41437;45.478;9.116;2023-04-10T20:07:06;100242.53;;;13.05;nan
55576;BME280;41437;45.478;9.116;2023-04-10T20:10:09;100249.16;;;12.99;nan
55576;BME280;41437;45.478;9.116;2023-04-10T20:13:11;100253.56;;;12.95;nan
55576;BME280;41437;45.478;9.116;2023-04-10T20:16:13;100270.19;;;13.00;nan
55576;BME280;41437;45.478;9.116;2023-04-10T20:19:15;100277.66;;;13.00;nan
55576;BME280;41437;45.478;9.116;2023-04-10T20:22:16;100277.38;;;13.01;nan
55576;BME280;41437;45.478;9.116;2023-04-10T20:25:19;100279.41;;;13.11;nan
55576;BME280;41437;45.478;9.116;2023-04-10T20:28:23;100273.38;;;13.19;nan
55576;BME280;41437;45.478;9.116;2023-04-10T20:31:25;100278.03;;;13.19;nan
55576;BME280;41437;45.478;9.116;2023-04-10T20:34:26;100276.97;;;13.20;nan
55576;BME280;41437;45.478;9.116;2023-04-10T20:37:28;100286.16;;;13.25;nan
55576;BME280;41437;45.478;9.116;2023-04-10T20:40:31;100282.28;;;13.26;nan
55576;BME280;41437;45.478;9.116;2023-04-10T20:43:32;100273.72;;;13.28;nan
55576;BME280;41437;45.478;9.116;2023-04-10T20:46:34;100275.38;;;13.29;nan
55576;BME280;41437;45.478;9.116;2023-04-10T20:49:35;100285.63;;;13.28;nan
55576;BME280;41437;45.478;9.116;2023-04-10T20:52:38;100290.31;;;13.28;nan
55576;BME280;41437;45.478;9.116;2023-04-10T20:55:41;100287.56;;;13.28;nan
55576;BME280;41437;45.478;9.116;2023-04-10T20:58:43;100275.38;;;13.29;nan
55576;BME280;41437;45.478;9.116;2023-04-10T21:01:44;100263.53;;;13.39;nan
55576;BME280;41437;45.478;9.116;2023-04-10T21:04:48;100264.94;;;13.41;nan
55576;BME280;41437;45.478;9.116;2023-04-10T21:07:50;100265.19;;;13.40;nan
55576;BME280;41437;45.478;9.116;2023-04-10T21:10:56;100258.28;;;13.37;nan
55576;BME280;41437;45.478;9.116;2023-04-10T21:13:59;100252.72;;;13.37;nan
55576;BME280;41437;45.478;9.116;2023-04-10T21:17:01;100248.00;;;13.32;nan
55576;BME280;41437;45.478;9.116;2023-04-10T21:20:03;100251.03;;;13.36;nan
55576;BME280;41437;45.478;9.116;2023-04-10T21:23:04;100251.63;;;13.38;nan
55576;BME280;41437;45.478;9.116;2023-04-10T21:26:07;100254.66;;;13.37;nan
55576;BME280;41437;45.478;9.116;2023-04-10T21:29:09;100257.69;;;13.35;nan
55576;BME280;41437;45.478;9.116;2023-04-10T21:32:11;100256.88;;;13.40;nan
55576;BME280;41437;45.478;9.116;2023-04-10T21:35:12;100258.28;;;13.42;nan
55576;BME280;41437;45.478;9.116;2023-04-10T21:38:16;100262.41;;;13.40;nan
55576;BME280;41437;45.478;9.116;2023-04-10T21:41:18;100253.56;;;13.38;nan
55576;BME280;41437;45.478;9.116;2023-04-10T21:44:20;100263.81;;;13.37;nan
55576;BME280;41437;45.478;9.116;2023-04-10T21:47:22;100256.31;;;13.38;nan
55576;BME280;41437;45.478;9.116;2023-04-10T21:50:26;100264.88;;;13.36;nan
55576;BME280;41437;45.478;9.116;2023-04-10T21:53:28;100253.22;;;13.24;nan
55576;BME280;41437;45.478;9.116;2023-04-10T21:56:31;100249.47;;;13.03;nan
55576;BME280;41437;45.478;9.116;2023-04-10T21:59:34;100240.84;;;12.99;nan
55576;BME280;41437;45.478;9.116;2023-04-10T22:02:37;100240.56;;;12.96;nan
55576;BME280;41437;45.478;9.116;2023-04-10T22:05:47;100232.56;;;12.99;nan
55576;BME280;41437;45.478;9.116;2023-04-10T22:08:57;100239.75;;;13.00;nan